sensor_id;sensor_type;location;lat;lon;timestamp;temperature;humidity
18153;DHT22;9202;51.578;7.734;2022-10-24T00:02:26;17.00;99.90
18153;DHT22;9202;51.578;7.734;2022-10-24T00:04:29;17.00;99.90
18153;DHT22;9202;51.578;7.734;2022-10-24T00:06:33;17.00;99.90
18153;DHT22;9202;51.578;7.734;2022-10-24T00:08:37;17.00;99.90
18153;DHT22;9202;51.578;7.734;2022-10-24T00:10:42;17.10;99.90
18153;DHT22;9202;51.578;7.734;2022-10-24T00:12:46;17.00;99.90
18153;DHT22;9202;51.578;7.734;2022-10-24T00:14:50;16.90;99.90
18153;DHT22;9202;51.578;7.734;2022-10-24T00:16:53;16.90;99.90
18153;DHT22;9202;51.578;7.734;2022-10-24T00:18:57;16.90;99.90
18153;DHT22;9202;51.578;7.734;2022-10-24T00:21:00;17.00;99.90
18153;DHT22;9202;51.578;7.734;2022-10-24T00:23:04;16.90;99.90
18153;DHT22;9202;51.578;7.734;2022-10-24T00:25:08;16.80;99.90
18153;DHT22;9202;51.578;7.734;2022-10-24T00:27:12;16.90;99.90
18153;DHT22;9202;51.578;7.734;2022-10-24T00:29:16;16.90;99.90
18153;DHT22;9202;51.578;7.734;2022-10-24T00:31:19;16.80;99.90
18153;DHT22;9202;51.578;7.734;2022-10-24T00:33:23;16.90;99.90
18153;DHT22;9202;51.578;7.734;2022-10-24T00:35:27;16.90;99.90
18153;DHT22;9202;51.578;7.734;2022-10-24T00:39:50;16.80;99.90
18153;DHT22;9202;51.578;7.734;2022-10-24T00:41:54;16.70;99.90
18153;DHT22;9202;51.578;7.734;2022-10-24T00:44:16;16.80;99.90
18153;DHT22;9202;51.578;7.734;2022-10-24T00:46:21;16.80;99.90
18153;DHT22;9202;51.578;7.734;2022-10-24T00:48:27;16.70;99.90
18153;DHT22;9202;51.578;7.734;2022-10-24T00:50:32;16.80;99.90
18153;DHT22;9202;51.578;7.734;2022-10-24T00:52:39;16.90;99.90
18153;DHT22;9202;51.578;7.734;2022-10-24T00:54:43;16.90;99.90
18153;DHT22;9202;51.578;7.734;2022-10-24T00:56:52;16.90;99.90
18153;DHT22;9202;51.578;7.734;2022-10-24T00:58:56;16.90;99.90
18153;DHT22;9202;51.578;7.734;2022-10-24T01:01:00;16.90;99.90
18153;DHT22;9202;51.578;7.734;2022-10-24T01:03:04;16.80;99.90
18153;DHT22;9202;51.578;7.734;2022-10-24T01:10:10;16.90;99.90
18153;DHT22;9202;51.578;7.734;2022-10-24T01:12:20;16.90;99.90
18153;DHT22;9202;51.578;7.734;2022-10-24T01:14:30;16.90;99.90
18153;DHT22;9202;51.578;7.734;2022-10-24T01:18:51;16.90;99.90
18153;DHT22;9202;51.578;7.734;2022-10-24T01:21:07;16.90;99.90
18153;DHT22;9202;51.578;7.734;2022-10-24T01:23:28;16.90;99.90
18153;DHT22;9202;51.578;7.734;2022-10-24T01:27:56;16.80;99.90
18153;DHT22;9202;51.578;7.734;2022-10-24T01:30:06;16.80;99.90
18153;DHT22;9202;51.578;7.734;2022-10-24T01:32:14;16.80;99.90
18153;DHT22;9202;51.578;7.734;2022-10-24T01:34:24;16.80;99.90
18153;DHT22;9202;51.578;7.734;2022-10-24T01:36:31;16.90;99.90
18153;DHT22;9202;51.578;7.734;2022-10-24T01:40:53;16.90;99.90
18153;DHT22;9202;51.578;7.734;2022-10-24T01:43:00;16.80;99.90
18153;DHT22;9202;51.578;7.734;2022-10-24T01:45:07;16.80;99.90
18153;DHT22;9202;51.578;7.734;2022-10-24T01:47:14;16.80;99.90
18153;DHT22;9202;51.578;7.734;2022-10-24T01:51:38;16.70;99.90
18153;DHT22;9202;51.578;7.734;2022-10-24T01:53:42;16.80;99.90
18153;DHT22;9202;51.578;7.734;2022-10-24T01:55:46;16.80;99.90
18153;DHT22;9202;51.578;7.734;2022-10-24T01:57:50;16.80;99.90
18153;DHT22;9202;51.578;7.734;2022-10-24T01:59:54;16.70;99.90
18153;DHT22;9202;51.578;7.734;2022-10-24T02:02:00;16.70;99.90
18153;DHT22;9202;51.578;7.734;2022-10-24T02:04:07;16.80;99.90
18153;DHT22;9202;51.578;7.734;2022-10-24T02:06:14;16.70;99.90
18153;DHT22;9202;51.578;7.734;2022-10-24T02:08:24;16.60;99.90
18153;DHT22;9202;51.578;7.734;2022-10-24T02:10:28;16.60;99.90
18153;DHT22;9202;51.578;7.734;2022-10-24T02:12:33;16.60;99.90
18153;DHT22;9202;51.578;7.734;2022-10-24T02:14:41;16.60;99.90
18153;DHT22;9202;51.578;7.734;2022-10-24T02:16:46;16.70;99.90
18153;DHT22;9202;51.578;7.734;2022-10-24T02:18:51;16.80;99.90
18153;DHT22;9202;51.578;7.734;2022-10-24T02:20:58;16.80;99.90
18153;DHT22;9202;51.578;7.734;2022-10-24T02:25:25;17.00;99.90
18153;DHT22;9202;51.578;7.734;2022-10-24T02:27:33;17.10;99.90
18153;DHT22;9202;51.578;7.734;2022-10-24T02:29:41;17.00;99.90
18153;DHT22;9202;51.578;7.734;2022-10-24T02:31:47;17.00;99.90
18153;DHT22;9202;51.578;7.734;2022-10-24T02:33:53;17.10;99.90
18153;DHT22;9202;51.578;7.734;2022-10-24T02:35:58;17.20;99.90
18153;DHT22;9202;51.578;7.734;2022-10-24T02:38:06;17.20;99.90
18153;DHT22;9202;51.578;7.734;2022-10-24T02:40:12;17.30;99.90
18153;DHT22;9202;51.578;7.734;2022-10-24T02:42:18;17.30;99.90
18153;DHT22;9202;51.578;7.734;2022-10-24T02:44:23;17.30;99.90
18153;DHT22;9202;51.578;7.734;2022-10-24T02:46:28;17.20;99.90
18153;DHT22;9202;51.578;7.734;2022-10-24T02:50:52;17.20;99.90
18153;DHT22;9202;51.578;7.734;2022-10-24T02:52:55;17.10;99.90
18153;DHT22;9202;51.578;7.734;2022-10-24T02:54:58;17.20;99.90
18153;DHT22;9202;51.578;7.734;2022-10-24T02:57:03;17.30;99.90
18153;DHT22;9202;51.578;7.734;2022-10-24T02:59:06;17.20;99.90
18153;DHT22;9202;51.578;7.734;2022-10-24T03:01:10;17.20;99.90
18153;DHT22;9202;51.578;7.734;2022-10-24T03:03:13;17.20;99.90
18153;DHT22;9202;51.578;7.734;2022-10-24T03:05:17;17.20;99.90
18153;DHT22;9202;51.578;7.734;2022-10-24T03:07:20;17.20;99.90
18153;DHT22;9202;51.578;7.734;2022-10-24T03:09:24;17.20;99.90
18153;DHT22;9202;51.578;7.734;2022-10-24T03:11:27;17.20;99.90
18153;DHT22;9202;51.578;7.734;2022-10-24T03:13:31;17.30;99.90
18153;DHT22;9202;51.578;7.734;2022-10-24T03:17:53;15.50;99.90
18153;DHT22;9202;51.578;7.734;2022-10-24T03:19:56;17.30;99.90
18153;DHT22;9202;51.578;7.734;2022-10-24T03:22:00;17.30;99.90
18153;DHT22;9202;51.578;7.734;2022-10-24T03:24:04;17.30;99.90
18153;DHT22;9202;51.578;7.734;2022-10-24T03:26:07;17.30;99.90
18153;DHT22;9202;51.578;7.734;2022-10-24T03:28:10;17.30;99.90
18153;DHT22;9202;51.578;7.734;2022-10-24T03:30:14;17.40;99.90
18153;DHT22;9202;51.578;7.734;2022-10-24T03:32:17;17.40;99.90
18153;DHT22;9202;51.578;7.734;2022-10-24T03:34:21;17.40;99.90
18153;DHT22;9202;51.578;7.734;2022-10-24T03:36:25;17.50;99.90
18153;DHT22;9202;51.578;7.734;2022-10-24T03:38:28;17.50;99.90
18153;DHT22;9202;51.578;7.734;2022-10-24T03:40:32;17.50;99.90
18153;DHT22;9202;51.578;7.734;2022-10-24T03:44:53;17.50;99.90
18153;DHT22;9202;51.578;7.734;2022-10-24T03:46:57;17.50;99.90
18153;DHT22;9202;51.578;7.734;2022-10-24T03:49:00;17.50;99.90
18153;DHT22;9202;51.578;7.734;2022-10-24T03:51:04;17.50;99.90
18153;DHT22;9202;51.578;7.734;2022-10-24T03:53:08;17.50;99.90
18153;DHT22;9202;51.578;7.734;2022-10-24T03:55:12;17.40;99.90
18153;DHT22;9202;51.578;7.734;2022-10-24T03:57:15;17.30;99.90
18153;DHT22;9202;51.578;7.734;2022-10-24T03:59:19;17.30;99.90
18153;DHT22;9202;51.578;7.734;2022-10-24T04:01:22;17.30;99.90
18153;DHT22;9202;51.578;7.734;2022-10-24T04:03:26;17.30;99.90
18153;DHT22;9202;51.578;7.734;2022-10-24T04:05:30;17.20;99.90
18153;DHT22;9202;51.578;7.734;2022-10-24T04:07:33;17.30;99.90
18153;DHT22;9202;51.578;7.734;2022-10-24T04:11:53;17.20;99.90
18153;DHT22;9202;51.578;7.734;2022-10-24T04:13:57;17.10;99.90
18153;DHT22;9202;51.578;7.734;2022-10-24T04:16:00;17.20;99.90
18153;DHT22;9202;51.578;7.734;2022-10-24T04:18:04;17.10;99.90
18153;DHT22;9202;51.578;7.734;2022-10-24T04:20:11;17.10;99.90
18153;DHT22;9202;51.578;7.734;2022-10-24T04:22:14;17.10;99.90
18153;DHT22;9202;51.578;7.734;2022-10-24T04:24:18;17.10;99.90
18153;DHT22;9202;51.578;7.734;2022-10-24T04:26:21;17.10;99.90
18153;DHT22;9202;51.578;7.734;2022-10-24T04:28:25;17.10;99.90
18153;DHT22;9202;51.578;7.734;2022-10-24T04:30:29;17.10;99.90
18153;DHT22;9202;51.578;7.734;2022-10-24T04:32:33;17.10;99.90
18153;DHT22;9202;51.578;7.734;2022-10-24T04:34:36;17.10;99.90
18153;DHT22;9202;51.578;7.734;2022-10-24T04:36:40;17.10;99.90
18153;DHT22;9202;51.578;7.734;2022-10-24T04:41:00;16.90;99.90
18153;DHT22;9202;51.578;7.734;2022-10-24T04:43:03;16.90;99.90
18153;DHT22;9202;51.578;7.734;2022-10-24T04:45:09;16.90;99.90
18153;DHT22;9202;51.578;7.734;2022-10-24T04:47:13;16.90;99.90
18153;DHT22;9202;51.578;7.734;2022-10-24T04:49:16;16.90;99.90
18153;DHT22;9202;51.578;7.734;2022-10-24T04:51:20;16.90;99.90
18153;DHT22;9202;51.578;7.734;2022-10-24T04:53:25;16.90;99.90
18153;DHT22;9202;51.578;7.734;2022-10-24T04:55:28;16.90;99.90
18153;DHT22;9202;51.578;7.734;2022-10-24T04:57:32;17.00;99.90
18153;DHT22;9202;51.578;7.734;2022-10-24T04:59:35;17.00;99.90
18153;DHT22;9202;51.578;7.734;2022-10-24T05:03:55;16.90;99.90
18153;DHT22;9202;51.578;7.734;2022-10-24T05:05:58;16.90;99.90
18153;DHT22;9202;51.578;7.734;2022-10-24T05:08:03;16.90;99.90
18153;DHT22;9202;51.578;7.734;2022-10-24T05:12:25;16.90;99.90
18153;DHT22;9202;51.578;7.734;2022-10-24T05:14:29;17.00;99.90
18153;DHT22;9202;51.578;7.734;2022-10-24T05:16:32;17.00;99.90
18153;DHT22;9202;51.578;7.734;2022-10-24T05:18:36;17.00;99.90
18153;DHT22;9202;51.578;7.734;2022-10-24T05:22:55;17.00;99.90
18153;DHT22;9202;51.578;7.734;2022-10-24T05:24:59;17.00;99.90
18153;DHT22;9202;51.578;7.734;2022-10-24T05:27:02;17.00;99.90
18153;DHT22;9202;51.578;7.734;2022-10-24T05:29:06;16.90;99.90
18153;DHT22;9202;51.578;7.734;2022-10-24T05:31:09;16.90;99.90
18153;DHT22;9202;51.578;7.734;2022-10-24T05:33:13;17.00;99.90
18153;DHT22;9202;51.578;7.734;2022-10-24T05:35:16;17.00;99.90
18153;DHT22;9202;51.578;7.734;2022-10-24T05:37:20;17.00;99.90
18153;DHT22;9202;51.578;7.734;2022-10-24T05:39:23;17.00;99.90
18153;DHT22;9202;51.578;7.734;2022-10-24T05:41:27;17.00;99.90
18153;DHT22;9202;51.578;7.734;2022-10-24T05:43:30;17.00;99.90
18153;DHT22;9202;51.578;7.734;2022-10-24T05:45:34;17.00;99.90
18153;DHT22;9202;51.578;7.734;2022-10-24T05:49:55;17.00;99.90
18153;DHT22;9202;51.578;7.734;2022-10-24T05:51:58;17.10;99.90
18153;DHT22;9202;51.578;7.734;2022-10-24T05:54:02;17.00;99.90
18153;DHT22;9202;51.578;7.734;2022-10-24T05:56:06;17.00;99.90
18153;DHT22;9202;51.578;7.734;2022-10-24T05:58:09;16.90;99.90
18153;DHT22;9202;51.578;7.734;2022-10-24T06:00:15;16.90;99.90
18153;DHT22;9202;51.578;7.734;2022-10-24T06:02:19;16.90;99.90
18153;DHT22;9202;51.578;7.734;2022-10-24T06:04:23;16.90;99.90
18153;DHT22;9202;51.578;7.734;2022-10-24T06:06:27;16.90;99.90
18153;DHT22;9202;51.578;7.734;2022-10-24T06:08:30;17.00;99.90
18153;DHT22;9202;51.578;7.734;2022-10-24T06:10:35;17.00;99.90
18153;DHT22;9202;51.578;7.734;2022-10-24T06:12:39;16.90;99.90
18153;DHT22;9202;51.578;7.734;2022-10-24T06:14:43;17.00;99.90
18153;DHT22;9202;51.578;7.734;2022-10-24T06:19:03;17.10;99.90
18153;DHT22;9202;51.578;7.734;2022-10-24T06:21:07;17.10;99.90
18153;DHT22;9202;51.578;7.734;2022-10-24T06:23:13;17.10;99.90
18153;DHT22;9202;51.578;7.734;2022-10-24T06:25:18;17.20;99.90
18153;DHT22;9202;51.578;7.734;2022-10-24T06:27:21;17.10;99.90
18153;DHT22;9202;51.578;7.734;2022-10-24T06:29:27;17.10;99.90
18153;DHT22;9202;51.578;7.734;2022-10-24T06:31:34;17.10;99.90
18153;DHT22;9202;51.578;7.734;2022-10-24T06:33:40;17.10;99.90
18153;DHT22;9202;51.578;7.734;2022-10-24T06:35:44;17.10;99.90
18153;DHT22;9202;51.578;7.734;2022-10-24T06:37:47;17.10;99.90
18153;DHT22;9202;51.578;7.734;2022-10-24T06:42:09;17.10;99.90
18153;DHT22;9202;51.578;7.734;2022-10-24T06:44:13;17.10;99.90
18153;DHT22;9202;51.578;7.734;2022-10-24T06:46:17;17.00;99.90
18153;DHT22;9202;51.578;7.734;2022-10-24T06:48:22;17.10;99.90
18153;DHT22;9202;51.578;7.734;2022-10-24T06:50:26;17.10;99.90
18153;DHT22;9202;51.578;7.734;2022-10-24T06:52:29;17.20;99.90
18153;DHT22;9202;51.578;7.734;2022-10-24T06:54:33;17.20;99.90
18153;DHT22;9202;51.578;7.734;2022-10-24T06:56:37;17.10;99.90
18153;DHT22;9202;51.578;7.734;2022-10-24T06:58:40;17.10;99.90
18153;DHT22;9202;51.578;7.734;2022-10-24T07:00:44;17.20;99.90
18153;DHT22;9202;51.578;7.734;2022-10-24T07:02:47;17.20;99.90
18153;DHT22;9202;51.578;7.734;2022-10-24T07:07:14;17.10;99.90
18153;DHT22;9202;51.578;7.734;2022-10-24T07:09:18;17.10;99.90
18153;DHT22;9202;51.578;7.734;2022-10-24T07:11:22;17.10;99.90
18153;DHT22;9202;51.578;7.734;2022-10-24T07:13:26;17.10;99.90
18153;DHT22;9202;51.578;7.734;2022-10-24T07:15:30;17.30;99.90
18153;DHT22;9202;51.578;7.734;2022-10-24T07:17:40;17.20;99.90
18153;DHT22;9202;51.578;7.734;2022-10-24T07:19:44;17.30;99.90
18153;DHT22;9202;51.578;7.734;2022-10-24T07:24:04;17.30;99.90
18153;DHT22;9202;51.578;7.734;2022-10-24T07:26:10;17.30;99.90
18153;DHT22;9202;51.578;7.734;2022-10-24T07:28:13;17.30;99.90
18153;DHT22;9202;51.578;7.734;2022-10-24T07:30:18;17.30;99.90
18153;DHT22;9202;51.578;7.734;2022-10-24T07:32:21;17.40;99.90
18153;DHT22;9202;51.578;7.734;2022-10-24T07:34:24;17.40;99.90
18153;DHT22;9202;51.578;7.734;2022-10-24T07:36:28;17.40;99.90
18153;DHT22;9202;51.578;7.734;2022-10-24T07:38:32;17.50;99.90
18153;DHT22;9202;51.578;7.734;2022-10-24T07:40:36;17.50;99.90
18153;DHT22;9202;51.578;7.734;2022-10-24T07:42:39;17.50;99.90
18153;DHT22;9202;51.578;7.734;2022-10-24T07:44:42;17.50;99.90
18153;DHT22;9202;51.578;7.734;2022-10-24T07:46:46;17.60;99.90
18153;DHT22;9202;51.578;7.734;2022-10-24T07:48:49;17.70;99.90
18153;DHT22;9202;51.578;7.734;2022-10-24T07:50:53;17.70;99.90
18153;DHT22;9202;51.578;7.734;2022-10-24T07:52:57;17.80;99.90
18153;DHT22;9202;51.578;7.734;2022-10-24T07:55:00;17.80;99.90
18153;DHT22;9202;51.578;7.734;2022-10-24T07:57:04;17.90;99.90
18153;DHT22;9202;51.578;7.734;2022-10-24T07:59:07;17.90;99.90
18153;DHT22;9202;51.578;7.734;2022-10-24T08:01:15;17.90;99.90
18153;DHT22;9202;51.578;7.734;2022-10-24T08:03:19;17.90;99.90
18153;DHT22;9202;51.578;7.734;2022-10-24T08:05:22;18.00;99.90
18153;DHT22;9202;51.578;7.734;2022-10-24T08:07:25;18.10;99.90
18153;DHT22;9202;51.578;7.734;2022-10-24T08:09:29;18.30;99.90
18153;DHT22;9202;51.578;7.734;2022-10-24T08:11:32;18.30;99.90
18153;DHT22;9202;51.578;7.734;2022-10-24T08:13:36;18.50;99.90
18153;DHT22;9202;51.578;7.734;2022-10-24T08:15:40;18.60;99.90
18153;DHT22;9202;51.578;7.734;2022-10-24T08:19:59;18.50;99.90
18153;DHT22;9202;51.578;7.734;2022-10-24T08:22:03;18.50;99.90
18153;DHT22;9202;51.578;7.734;2022-10-24T08:24:07;18.50;99.90
18153;DHT22;9202;51.578;7.734;2022-10-24T08:28:29;18.50;99.90
18153;DHT22;9202;51.578;7.734;2022-10-24T08:30:32;18.40;99.90
18153;DHT22;9202;51.578;7.734;2022-10-24T08:32:36;18.40;99.90
18153;DHT22;9202;51.578;7.734;2022-10-24T08:34:40;18.30;99.90
18153;DHT22;9202;51.578;7.734;2022-10-24T08:36:43;18.20;99.90
18153;DHT22;9202;51.578;7.734;2022-10-24T08:38:47;18.20;99.90
18153;DHT22;9202;51.578;7.734;2022-10-24T08:40:50;18.40;99.90
18153;DHT22;9202;51.578;7.734;2022-10-24T08:42:54;18.40;99.90
18153;DHT22;9202;51.578;7.734;2022-10-24T08:44:57;18.50;99.90
18153;DHT22;9202;51.578;7.734;2022-10-24T08:47:05;18.40;99.90
18153;DHT22;9202;51.578;7.734;2022-10-24T08:49:14;18.50;99.90
18153;DHT22;9202;51.578;7.734;2022-10-24T08:51:22;18.40;99.90
18153;DHT22;9202;51.578;7.734;2022-10-24T08:53:27;18.40;99.90
18153;DHT22;9202;51.578;7.734;2022-10-24T08:57:53;18.40;99.90
18153;DHT22;9202;51.578;7.734;2022-10-24T08:59:59;18.40;99.90
18153;DHT22;9202;51.578;7.734;2022-10-24T09:02:11;18.40;99.90
18153;DHT22;9202;51.578;7.734;2022-10-24T09:04:14;18.40;99.90
18153;DHT22;9202;51.578;7.734;2022-10-24T09:06:20;18.40;99.90
18153;DHT22;9202;51.578;7.734;2022-10-24T09:08:27;18.50;99.90
18153;DHT22;9202;51.578;7.734;2022-10-24T09:10:37;18.50;99.90
18153;DHT22;9202;51.578;7.734;2022-10-24T09:12:41;18.40;99.90
18153;DHT22;9202;51.578;7.734;2022-10-24T09:14:46;18.30;99.90
18153;DHT22;9202;51.578;7.734;2022-10-24T09:16:53;18.30;99.90
18153;DHT22;9202;51.578;7.734;2022-10-24T09:18:58;18.30;99.90
18153;DHT22;9202;51.578;7.734;2022-10-24T09:21:02;18.20;99.90
18153;DHT22;9202;51.578;7.734;2022-10-24T09:25:27;18.10;99.90
18153;DHT22;9202;51.578;7.734;2022-10-24T09:27:38;18.10;99.90
18153;DHT22;9202;51.578;7.734;2022-10-24T09:29:42;18.10;99.90
18153;DHT22;9202;51.578;7.734;2022-10-24T09:31:46;18.00;99.90
18153;DHT22;9202;51.578;7.734;2022-10-24T09:36:12;18.00;99.90
18153;DHT22;9202;51.578;7.734;2022-10-24T09:38:29;18.00;99.90
18153;DHT22;9202;51.578;7.734;2022-10-24T09:40:35;18.00;99.90
18153;DHT22;9202;51.578;7.734;2022-10-24T09:42:40;18.10;99.90
18153;DHT22;9202;51.578;7.734;2022-10-24T09:44:45;18.10;99.90
18153;DHT22;9202;51.578;7.734;2022-10-24T09:46:49;18.10;99.90
18153;DHT22;9202;51.578;7.734;2022-10-24T09:48:56;18.10;99.90
18153;DHT22;9202;51.578;7.734;2022-10-24T09:51:00;18.10;99.90
18153;DHT22;9202;51.578;7.734;2022-10-24T09:53:04;18.00;99.90
18153;DHT22;9202;51.578;7.734;2022-10-24T09:57:43;18.00;99.90
18153;DHT22;9202;51.578;7.734;2022-10-24T10:00:02;18.00;99.90
18153;DHT22;9202;51.578;7.734;2022-10-24T10:02:24;18.00;99.90
18153;DHT22;9202;51.578;7.734;2022-10-24T10:04:28;18.00;99.90
18153;DHT22;9202;51.578;7.734;2022-10-24T10:06:32;18.00;99.90
18153;DHT22;9202;51.578;7.734;2022-10-24T10:13:29;18.10;99.90
18153;DHT22;9202;51.578;7.734;2022-10-24T10:15:36;18.10;99.90
18153;DHT22;9202;51.578;7.734;2022-10-24T10:17:48;18.10;99.90
18153;DHT22;9202;51.578;7.734;2022-10-24T10:19:53;18.10;99.90
18153;DHT22;9202;51.578;7.734;2022-10-24T10:22:00;18.00;99.90
18153;DHT22;9202;51.578;7.734;2022-10-24T10:24:09;18.10;99.90
18153;DHT22;9202;51.578;7.734;2022-10-24T10:26:17;18.20;99.90
18153;DHT22;9202;51.578;7.734;2022-10-24T10:28:32;18.20;99.90
18153;DHT22;9202;51.578;7.734;2022-10-24T10:33:15;18.30;99.90
18153;DHT22;9202;51.578;7.734;2022-10-24T10:37:42;18.20;99.90
18153;DHT22;9202;51.578;7.734;2022-10-24T10:40:13;18.20;99.90
18153;DHT22;9202;51.578;7.734;2022-10-24T10:44:46;18.20;99.90
18153;DHT22;9202;51.578;7.734;2022-10-24T10:46:56;18.20;99.90
18153;DHT22;9202;51.578;7.734;2022-10-24T10:51:24;18.40;99.90
18153;DHT22;9202;51.578;7.734;2022-10-24T10:55:52;18.40;99.90
18153;DHT22;9202;51.578;7.734;2022-10-24T10:58:02;18.40;99.90
18153;DHT22;9202;51.578;7.734;2022-10-24T11:07:11;18.20;99.90
18153;DHT22;9202;51.578;7.734;2022-10-24T11:09:23;18.30;99.90
18153;DHT22;9202;51.578;7.734;2022-10-24T11:11:30;18.30;99.90
18153;DHT22;9202;51.578;7.734;2022-10-24T11:15:55;18.30;99.90
18153;DHT22;9202;51.578;7.734;2022-10-24T11:20:17;18.30;99.90
18153;DHT22;9202;51.578;7.734;2022-10-24T11:22:25;18.20;99.90
18153;DHT22;9202;51.578;7.734;2022-10-24T11:24:33;18.30;99.90
18153;DHT22;9202;51.578;7.734;2022-10-24T11:28:58;18.20;99.90
18153;DHT22;9202;51.578;7.734;2022-10-24T11:31:07;18.30;99.90
18153;DHT22;9202;51.578;7.734;2022-10-24T11:35:31;18.40;99.90
18153;DHT22;9202;51.578;7.734;2022-10-24T11:37:37;18.40;99.90
18153;DHT22;9202;51.578;7.734;2022-10-24T11:39:43;18.40;99.90
18153;DHT22;9202;51.578;7.734;2022-10-24T11:41:58;18.40;99.90
18153;DHT22;9202;51.578;7.734;2022-10-24T11:46:43;18.40;99.90
18153;DHT22;9202;51.578;7.734;2022-10-24T11:48:50;18.40;99.90
18153;DHT22;9202;51.578;7.734;2022-10-24T11:50:58;18.40;99.90
18153;DHT22;9202;51.578;7.734;2022-10-24T11:53:11;18.50;99.90
18153;DHT22;9202;51.578;7.734;2022-10-24T11:55:14;18.40;99.90
18153;DHT22;9202;51.578;7.734;2022-10-24T11:59:38;18.40;99.90
18153;DHT22;9202;51.578;7.734;2022-10-24T12:01:56;18.40;99.90
18153;DHT22;9202;51.578;7.734;2022-10-24T12:04:09;18.30;99.90
18153;DHT22;9202;51.578;7.734;2022-10-24T12:06:23;18.30;99.90
18153;DHT22;9202;51.578;7.734;2022-10-24T12:14:05;18.10;99.90
18153;DHT22;9202;51.578;7.734;2022-10-24T12:16:43;18.10;99.90
18153;DHT22;9202;51.578;7.734;2022-10-24T12:18:49;18.10;99.90
18153;DHT22;9202;51.578;7.734;2022-10-24T12:20:55;18.10;99.90
18153;DHT22;9202;51.578;7.734;2022-10-24T12:23:00;18.10;99.90
18153;DHT22;9202;51.578;7.734;2022-10-24T12:25:13;18.10;99.90
18153;DHT22;9202;51.578;7.734;2022-10-24T12:27:25;18.10;99.90
18153;DHT22;9202;51.578;7.734;2022-10-24T12:29:30;18.20;99.90
18153;DHT22;9202;51.578;7.734;2022-10-24T12:31:36;18.20;99.90
18153;DHT22;9202;51.578;7.734;2022-10-24T12:33:40;18.10;99.90
18153;DHT22;9202;51.578;7.734;2022-10-24T12:35:49;18.00;99.90
18153;DHT22;9202;51.578;7.734;2022-10-24T12:37:58;18.10;99.90
18153;DHT22;9202;51.578;7.734;2022-10-24T12:45:28;18.10;99.90
18153;DHT22;9202;51.578;7.734;2022-10-24T12:47:36;18.20;99.90
18153;DHT22;9202;51.578;7.734;2022-10-24T12:49:40;18.10;99.90
18153;DHT22;9202;51.578;7.734;2022-10-24T12:51:44;18.20;99.90
18153;DHT22;9202;51.578;7.734;2022-10-24T12:54:02;18.20;99.90
18153;DHT22;9202;51.578;7.734;2022-10-24T12:56:17;18.20;99.90
18153;DHT22;9202;51.578;7.734;2022-10-24T12:58:23;18.20;99.90
18153;DHT22;9202;51.578;7.734;2022-10-24T13:00:29;18.20;99.90
18153;DHT22;9202;51.578;7.734;2022-10-24T13:02:48;18.20;99.90
18153;DHT22;9202;51.578;7.734;2022-10-24T13:05:00;18.20;99.90
18153;DHT22;9202;51.578;7.734;2022-10-24T13:07:27;18.20;99.90
18153;DHT22;9202;51.578;7.734;2022-10-24T13:09:35;18.10;99.90
18153;DHT22;9202;51.578;7.734;2022-10-24T13:11:47;18.00;99.90
18153;DHT22;9202;51.578;7.734;2022-10-24T13:16:34;17.90;99.90
18153;DHT22;9202;51.578;7.734;2022-10-24T13:18:45;17.90;99.90
18153;DHT22;9202;51.578;7.734;2022-10-24T13:20:51;17.90;99.90
18153;DHT22;9202;51.578;7.734;2022-10-24T13:23:01;18.00;99.90
18153;DHT22;9202;51.578;7.734;2022-10-24T13:25:28;18.00;99.90
18153;DHT22;9202;51.578;7.734;2022-10-24T13:32:40;18.00;99.90
18153;DHT22;9202;51.578;7.734;2022-10-24T13:34:45;17.90;99.90
18153;DHT22;9202;51.578;7.734;2022-10-24T13:36:56;17.90;99.90
18153;DHT22;9202;51.578;7.734;2022-10-24T13:38:59;18.00;99.90
18153;DHT22;9202;51.578;7.734;2022-10-24T13:41:04;18.10;99.90
18153;DHT22;9202;51.578;7.734;2022-10-24T13:43:21;18.10;99.90
18153;DHT22;9202;51.578;7.734;2022-10-24T13:48:01;18.10;99.90
18153;DHT22;9202;51.578;7.734;2022-10-24T13:50:16;18.20;99.90
18153;DHT22;9202;51.578;7.734;2022-10-24T13:55:15;18.20;99.90
18153;DHT22;9202;51.578;7.734;2022-10-24T14:00:17;18.10;99.90
18153;DHT22;9202;51.578;7.734;2022-10-24T14:05:15;18.20;99.90
18153;DHT22;9202;51.578;7.734;2022-10-24T14:07:37;18.20;99.90
18153;DHT22;9202;51.578;7.734;2022-10-24T14:09:54;18.10;99.90
18153;DHT22;9202;51.578;7.734;2022-10-24T14:12:29;18.10;99.90
18153;DHT22;9202;51.578;7.734;2022-10-24T14:14:55;18.10;99.90
18153;DHT22;9202;51.578;7.734;2022-10-24T14:20:00;18.10;99.90
18153;DHT22;9202;51.578;7.734;2022-10-24T14:22:35;18.00;99.90
18153;DHT22;9202;51.578;7.734;2022-10-24T14:25:12;17.90;99.90
18153;DHT22;9202;51.578;7.734;2022-10-24T14:27:39;17.90;99.90
18153;DHT22;9202;51.578;7.734;2022-10-24T14:29:56;17.90;99.90
18153;DHT22;9202;51.578;7.734;2022-10-24T14:32:02;17.90;99.90
18153;DHT22;9202;51.578;7.734;2022-10-24T14:34:15;17.90;99.90
18153;DHT22;9202;51.578;7.734;2022-10-24T14:36:16;17.90;99.90
18153;DHT22;9202;51.578;7.734;2022-10-24T14:38:32;17.90;99.90
18153;DHT22;9202;51.578;7.734;2022-10-24T14:41:01;17.90;99.90
18153;DHT22;9202;51.578;7.734;2022-10-24T14:46:28;17.80;99.90
18153;DHT22;9202;51.578;7.734;2022-10-24T14:51:19;17.90;99.90
18153;DHT22;9202;51.578;7.734;2022-10-24T14:56:19;17.90;99.90
18153;DHT22;9202;51.578;7.734;2022-10-24T14:58:39;17.90;99.90
18153;DHT22;9202;51.578;7.734;2022-10-24T15:00:59;17.80;99.90
18153;DHT22;9202;51.578;7.734;2022-10-24T15:03:30;17.80;99.90
18153;DHT22;9202;51.578;7.734;2022-10-24T15:06:15;17.80;99.90
18153;DHT22;9202;51.578;7.734;2022-10-24T15:11:23;17.80;99.90
18153;DHT22;9202;51.578;7.734;2022-10-24T15:16:37;17.90;99.90
18153;DHT22;9202;51.578;7.734;2022-10-24T15:19:10;18.00;99.90
18153;DHT22;9202;51.578;7.734;2022-10-24T15:21:43;18.00;99.90
18153;DHT22;9202;51.578;7.734;2022-10-24T15:24:16;18.00;99.90
18153;DHT22;9202;51.578;7.734;2022-10-24T15:26:43;17.90;99.90
18153;DHT22;9202;51.578;7.734;2022-10-24T15:29:18;17.90;99.90
18153;DHT22;9202;51.578;7.734;2022-10-24T15:31:45;17.90;99.90
18153;DHT22;9202;51.578;7.734;2022-10-24T15:34:20;17.80;99.90
18153;DHT22;9202;51.578;7.734;2022-10-24T15:36:45;17.70;99.90
18153;DHT22;9202;51.578;7.734;2022-10-24T15:41:55;17.70;99.90
18153;DHT22;9202;51.578;7.734;2022-10-24T15:44:27;17.60;99.90
18153;DHT22;9202;51.578;7.734;2022-10-24T15:46:58;17.50;99.90
18153;DHT22;9202;51.578;7.734;2022-10-24T15:49:12;17.60;99.90
18153;DHT22;9202;51.578;7.734;2022-10-24T15:51:26;17.50;99.90
18153;DHT22;9202;51.578;7.734;2022-10-24T15:56:26;17.40;99.90
18153;DHT22;9202;51.578;7.734;2022-10-24T15:58:53;17.30;99.90
18153;DHT22;9202;51.578;7.734;2022-10-24T16:03:47;17.20;99.90
18153;DHT22;9202;51.578;7.734;2022-10-24T16:06:17;17.20;99.90
18153;DHT22;9202;51.578;7.734;2022-10-24T16:11:17;17.10;99.90
18153;DHT22;9202;51.578;7.734;2022-10-24T16:16:18;17.10;99.90
18153;DHT22;9202;51.578;7.734;2022-10-24T16:18:33;17.10;99.90
18153;DHT22;9202;51.578;7.734;2022-10-24T16:21:03;17.00;99.90
18153;DHT22;9202;51.578;7.734;2022-10-24T16:23:33;16.90;99.90